Greenbrier Valley Airport
KLWB : rendu visible

Aérodrome :











RETROUVEZ-NOUS SUR...

 
LOGIN :

S'inscrire | Disclaimer

   EN    FR    IT 

 









Légende :    VFR   VFR Marginal   IFR   IFR Intensif   IFR Très Intensif
Visi : 
Plafond : 
>= 8 km
>= 3000ft
5 à 8 km
1000 à 3000 ft
1500m à 5 km
500 à 1000 ft
800 à 1500m
200 à 500 ft
< 800m
< 200 ft
Symboles :   Orages  Brouillard  Fortes neiges  Fortes précipitations  Vent > 20 kt






- Altitude de l'aérodrome : 2302 ft


KLWB - Greenbrier Valley

DERNIER METAR :
  • 081255Z 17003KT 7SM RA SCT047 BKN060 OVC085 12/11 A2983

METARs EXPIRÉS :
  • 081215Z AUTO 00000KT 7SM -VCTSRA SCT028 BKN036 OVC055 12/11 A2981 RMK AO2 LTG DSNT W AND NW T01210110
  • 081155Z AUTO 02005KT 4SM RA SCT028 SCT040 OVC055 13/11 A2982 RMK AO2 70013 T01260106 10177 20118
  • 081135Z AUTO 02005KT 10SM -RA OVC055 12/11 A2982 RMK AO2 LTG DSNT NW T01230105
  • 081115Z AUTO 04003KT 10SM -DZ OVC055 12/10 A2981 RMK AO2 LTG DSNT W THRU N T01200103
  • 081055Z AUTO 04004KT 10SM -RA OVC055 12/10 A2981 RMK AO2 LTG DSNT N AND W T01200100
  • 081035Z AUTO 03012G19KT 10SM -VCTSRA BKN065 BKN075 OVC085 12/10 A2980 RMK AO2 LTG DSNT E AND NW T01220100
  • 081015Z AUTO 02016G29KT 10SM -DZ SCT034 BKN048 OVC110 13/10 A2980 RMK AO2 LTG DSNT N AND NW T01270097
  • 080955Z AUTO 36017G31KT 10SM BKN034 BKN060 BKN070 18/14 A2977 RMK AO2 LTG DSNT NW THRU NE T01770136

TAF KLWB
Valide du 08 à 12h jusqu'au 09 à 12h UTC


081120Z 0812/0912 VRB06KT 4SM -SHRA BR VCTS BKN025CB OVC050
TEMPO 0812/0813 03015G30KT
FM081500 25007KT P6SM VCSH BKN028 OVC100
FM081800 27008G17KT P6SM VCTS BKN030CB OVC100
FM082200 VRB04KT P6SM SCT025 BKN150
FM090400 VRB03KT 4SM BR BKN200
FM091000 27015G30KT 4SM -TSRA BR BKN017 OVC035CB



MET'MAP, la Météo Aéronautique d'un coup d'oeil ! - Copyright ORBIFLY Décembre 2007 - Disclaimer

ORBIFLY MET'MAP TEAM :

Programmation & Développement : Alexandra Zaïnal
Sur une idée originale de : Baudouin d'Aumeries
Assistance à la programmation : Marc-Olivier Méhu
Soutien technique & logistique : Manuel Goepfert

Contact : metmap@orbifly.com




SOURCES & CREDITS :

   NOAA       Earth
Advisory